sensor_id;sensor_type;location;lat;lon;timestamp;pressure;altitude;pressure_sealevel;temperature;humidity
70370;BME280;57790;51.356;-2.906;2023-04-01T00:02:11;100309.19;;;11.43;100.00
70370;BME280;57790;51.356;-2.906;2023-04-01T00:05:12;100319.81;;;11.43;100.00
70370;BME280;57790;51.356;-2.906;2023-04-01T00:08:13;100314.66;;;11.42;100.00
70370;BME280;57790;51.356;-2.906;2023-04-01T00:11:14;100318.97;;;11.43;100.00
70370;BME280;57790;51.356;-2.906;2023-04-01T00:14:15;100323.44;;;11.42;100.00
70370;BME280;57790;51.356;-2.906;2023-04-01T00:17:15;100321.97;;;11.40;100.00
70370;BME280;57790;51.356;-2.906;2023-04-01T00:20:16;100322.81;;;11.40;100.00
70370;BME280;57790;51.356;-2.906;2023-04-01T00:23:16;100326.09;;;11.42;100.00
70370;BME280;57790;51.356;-2.906;2023-04-01T00:26:17;100333.25;;;11.42;100.00
70370;BME280;57790;51.356;-2.906;2023-04-01T00:29:21;100340.38;;;11.41;100.00
70370;BME280;57790;51.356;-2.906;2023-04-01T00:32:21;100339.56;;;11.41;100.00
70370;BME280;57790;51.356;-2.906;2023-04-01T00:35:22;100331.78;;;11.39;100.00
70370;BME280;57790;51.356;-2.906;2023-04-01T00:38:22;100334.25;;;11.41;100.00
70370;BME280;57790;51.356;-2.906;2023-04-01T00:41:22;100338.25;;;11.37;100.00
70370;BME280;57790;51.356;-2.906;2023-04-01T00:44:25;100332.13;;;11.36;100.00
70370;BME280;57790;51.356;-2.906;2023-04-01T00:47:26;100337.44;;;11.36;100.00
70370;BME280;57790;51.356;-2.906;2023-04-01T00:50:28;100335.97;;;11.33;100.00
70370;BME280;57790;51.356;-2.906;2023-04-01T00:53:30;100348.06;;;11.36;100.00
70370;BME280;57790;51.356;-2.906;2023-04-01T00:56:42;100354.56;;;11.33;100.00
70370;BME280;57790;51.356;-2.906;2023-04-01T00:59:48;100356.19;;;11.35;100.00
70370;BME280;57790;51.356;-2.906;2023-04-01T01:02:50;100350.25;;;11.32;100.00
70370;BME280;57790;51.356;-2.906;2023-04-01T01:12:34;100347.78;;;11.31;100.00
70370;BME280;57790;51.356;-2.906;2023-04-01T01:15:44;100362.69;;;11.32;100.00
70370;BME280;57790;51.356;-2.906;2023-04-01T01:18:55;100357.38;;;11.32;100.00
70370;BME280;57790;51.356;-2.906;2023-04-01T01:28:36;100360.22;;;11.30;100.00
70370;BME280;57790;51.356;-2.906;2023-04-01T01:35:35;100355.09;;;11.29;100.00
70370;BME280;57790;51.356;-2.906;2023-04-01T01:38:35;100370.34;;;11.27;100.00
70370;BME280;57790;51.356;-2.906;2023-04-01T01:41:38;100367.88;;;11.25;100.00
70370;BME280;57790;51.356;-2.906;2023-04-01T01:44:41;100371.16;;;11.27;100.00
70370;BME280;57790;51.356;-2.906;2023-04-01T01:47:43;100371.34;;;11.26;100.00
70370;BME280;57790;51.356;-2.906;2023-04-01T01:50:46;100379.31;;;11.26;100.00
70370;BME280;57790;51.356;-2.906;2023-04-01T01:53:48;100382.13;;;11.24;100.00
70370;BME280;57790;51.356;-2.906;2023-04-01T01:56:52;100378.84;;;11.22;100.00
70370;BME280;57790;51.356;-2.906;2023-04-01T02:00:00;100390.28;;;11.23;100.00
70370;BME280;57790;51.356;-2.906;2023-04-01T02:03:03;100392.28;;;11.21;100.00
70370;BME280;57790;51.356;-2.906;2023-04-01T02:06:07;100400.88;;;11.23;100.00
70370;BME280;57790;51.356;-2.906;2023-04-01T02:09:10;100402.06;;;11.20;100.00
70370;BME280;57790;51.356;-2.906;2023-04-01T02:12:14;100410.84;;;11.21;100.00
70370;BME280;57790;51.356;-2.906;2023-04-01T02:15:18;100412.69;;;11.20;100.00
70370;BME280;57790;51.356;-2.906;2023-04-01T02:18:20;100419.81;;;11.20;100.00
70370;BME280;57790;51.356;-2.906;2023-04-01T02:21:24;100413.03;;;11.17;100.00
70370;BME280;57790;51.356;-2.906;2023-04-01T02:24:28;100418.34;;;11.17;100.00
70370;BME280;57790;51.356;-2.906;2023-04-01T02:27:30;100414.22;;;11.15;100.00
70370;BME280;57790;51.356;-2.906;2023-04-01T02:30:34;100421.81;;;11.18;100.00
70370;BME280;57790;51.356;-2.906;2023-04-01T02:33:37;100415.69;;;11.17;100.00
70370;BME280;57790;51.356;-2.906;2023-04-01T02:36:38;100420.81;;;11.19;100.00
70370;BME280;57790;51.356;-2.906;2023-04-01T02:39:39;100421.66;;;11.19;100.00
70370;BME280;57790;51.356;-2.906;2023-04-01T02:42:40;100427.13;;;11.18;100.00
70370;BME280;57790;51.356;-2.906;2023-04-01T02:45:40;100428.13;;;11.17;100.00
70370;BME280;57790;51.356;-2.906;2023-04-01T02:48:41;100423.00;;;11.15;100.00
70370;BME280;57790;51.356;-2.906;2023-04-01T02:51:41;100421.16;;;11.16;100.00
70370;BME280;57790;51.356;-2.906;2023-04-01T02:54:41;100421.16;;;11.16;100.00
70370;BME280;57790;51.356;-2.906;2023-04-01T02:57:42;100427.63;;;11.13;100.00
70370;BME280;57790;51.356;-2.906;2023-04-01T03:00:42;100425.47;;;11.17;100.00
70370;BME280;57790;51.356;-2.906;2023-04-01T03:03:43;100424.81;;;11.15;100.00
70370;BME280;57790;51.356;-2.906;2023-04-01T03:06:43;100424.97;;;11.13;100.00
70370;BME280;57790;51.356;-2.906;2023-04-01T03:09:43;100432.78;;;11.15;100.00
70370;BME280;57790;51.356;-2.906;2023-04-01T03:12:44;100433.75;;;11.14;100.00
70370;BME280;57790;51.356;-2.906;2023-04-01T03:15:44;100431.97;;;11.14;100.00
70370;BME280;57790;51.356;-2.906;2023-04-01T03:18:45;100439.25;;;11.12;100.00
70370;BME280;57790;51.356;-2.906;2023-04-01T03:21:45;100435.75;;;11.12;100.00
70370;BME280;57790;51.356;-2.906;2023-04-01T03:24:46;100435.75;;;11.12;100.00
70370;BME280;57790;51.356;-2.906;2023-04-01T03:27:46;100435.75;;;11.12;100.00
70370;BME280;57790;51.356;-2.906;2023-04-01T03:30:47;100444.72;;;11.11;100.00
70370;BME280;57790;51.356;-2.906;2023-04-01T03:33:47;100448.19;;;11.11;100.00
70370;BME280;57790;51.356;-2.906;2023-04-01T03:36:47;100443.91;;;11.10;100.00
70370;BME280;57790;51.356;-2.906;2023-04-01T03:39:48;100442.59;;;11.06;100.00
70370;BME280;57790;51.356;-2.906;2023-04-01T03:42:49;100436.13;;;11.09;100.00
70370;BME280;57790;51.356;-2.906;2023-04-01T03:45:51;100447.19;;;11.12;100.00
70370;BME280;57790;51.356;-2.906;2023-04-01T03:48:51;100453.69;;;11.10;100.00
70370;BME280;57790;51.356;-2.906;2023-04-01T03:51:52;100451.22;;;11.08;100.00
70370;BME280;57790;51.356;-2.906;2023-04-01T03:54:52;100443.44;;;11.07;100.00
70370;BME280;57790;51.356;-2.906;2023-04-01T03:57:53;100445.25;;;11.06;100.00
70370;BME280;57790;51.356;-2.906;2023-04-01T04:00:53;100457.69;;;11.06;100.00
70370;BME280;57790;51.356;-2.906;2023-04-01T04:03:53;100458.34;;;11.08;100.00
70370;BME280;57790;51.356;-2.906;2023-04-01T04:06:54;100458.16;;;11.09;100.00
70370;BME280;57790;51.356;-2.906;2023-04-01T04:09:55;100458.34;;;11.08;100.00
70370;BME280;57790;51.356;-2.906;2023-04-01T04:12:55;100461.00;;;11.08;100.00
70370;BME280;57790;51.356;-2.906;2023-04-01T04:15:56;100460.34;;;11.06;100.00
70370;BME280;57790;51.356;-2.906;2023-04-01T04:18:56;100468.31;;;11.06;100.00
70370;BME280;57790;51.356;-2.906;2023-04-01T04:21:56;100468.47;;;11.04;100.00
70370;BME280;57790;51.356;-2.906;2023-04-01T04:24:57;100474.97;;;11.01;100.00
70370;BME280;57790;51.356;-2.906;2023-04-01T04:27:58;100476.44;;;11.04;100.00
70370;BME280;57790;51.356;-2.906;2023-04-01T04:30:58;100482.09;;;11.01;100.00
70370;BME280;57790;51.356;-2.906;2023-04-01T04:34:00;100484.38;;;11.04;100.00
70370;BME280;57790;51.356;-2.906;2023-04-01T04:37:03;100474.97;;;11.01;100.00
70370;BME280;57790;51.356;-2.906;2023-04-01T04:40:04;100480.25;;;11.01;100.00
70370;BME280;57790;51.356;-2.906;2023-04-01T04:43:05;100487.41;;;11.01;100.00
70370;BME280;57790;51.356;-2.906;2023-04-01T04:46:10;100488.53;;;10.98;100.00
70370;BME280;57790;51.356;-2.906;2023-04-01T04:49:10;100498.84;;;11.01;100.00
70370;BME280;57790;51.356;-2.906;2023-04-01T04:52:11;100509.25;;;11.03;100.00
70370;BME280;57790;51.356;-2.906;2023-04-01T04:55:11;100501.47;;;11.01;100.00
70370;BME280;57790;51.356;-2.906;2023-04-01T04:58:12;100500.84;;;10.99;100.00
70370;BME280;57790;51.356;-2.906;2023-04-01T05:01:14;100504.63;;;10.97;100.00
70370;BME280;57790;51.356;-2.906;2023-04-01T05:04:15;100510.09;;;10.95;100.00
70370;BME280;57790;51.356;-2.906;2023-04-01T05:07:15;100514.59;;;10.95;100.00
70370;BME280;57790;51.356;-2.906;2023-04-01T05:10:16;100518.06;;;10.95;100.00
70370;BME280;57790;51.356;-2.906;2023-04-01T05:13:16;100514.41;;;10.96;100.00
70370;BME280;57790;51.356;-2.906;2023-04-01T05:16:19;100518.22;;;10.94;100.00
70370;BME280;57790;51.356;-2.906;2023-04-01T05:19:20;100516.41;;;10.94;100.00
70370;BME280;57790;51.356;-2.906;2023-04-01T05:22:20;100523.72;;;10.92;100.00
70370;BME280;57790;51.356;-2.906;2023-04-01T05:25:21;100522.38;;;10.96;100.00
70370;BME280;57790;51.356;-2.906;2023-04-01T05:28:21;100526.19;;;10.94;100.00
70370;BME280;57790;51.356;-2.906;2023-04-01T05:31:21;100525.72;;;10.90;100.00
70370;BME280;57790;51.356;-2.906;2023-04-01T05:34:24;100534.31;;;10.92;100.00
70370;BME280;57790;51.356;-2.906;2023-04-01T05:37:24;100537.81;;;10.93;100.00
70370;BME280;57790;51.356;-2.906;2023-04-01T05:40:25;100539.78;;;10.91;100.00
70370;BME280;57790;51.356;-2.906;2023-04-01T05:43:25;100547.56;;;10.92;100.00
70370;BME280;57790;51.356;-2.906;2023-04-01T05:46:26;100541.63;;;10.90;100.00
70370;BME280;57790;51.356;-2.906;2023-04-01T05:49:26;100545.28;;;10.89;100.00
70370;BME280;57790;51.356;-2.906;2023-04-01T05:52:27;100540.13;;;10.88;100.00
70370;BME280;57790;51.356;-2.906;2023-04-01T05:55:27;100547.94;;;10.89;100.00
70370;BME280;57790;51.356;-2.906;2023-04-01T05:58:27;100546.28;;;10.88;100.00
70370;BME280;57790;51.356;-2.906;2023-04-01T06:01:28;100554.22;;;10.88;100.00
70370;BME280;57790;51.356;-2.906;2023-04-01T06:04:34;100554.56;;;10.85;100.00
70370;BME280;57790;51.356;-2.906;2023-04-01T06:07:37;100560.69;;;10.86;100.00
70370;BME280;57790;51.356;-2.906;2023-04-01T06:10:55;100559.88;;;10.85;100.00
70370;BME280;57790;51.356;-2.906;2023-04-01T06:14:37;100557.22;;;10.85;100.00
70370;BME280;57790;51.356;-2.906;2023-04-01T06:20:41;100560.84;;;10.84;100.00
70370;BME280;57790;51.356;-2.906;2023-04-01T06:30:56;100585.41;;;10.86;100.00
70370;BME280;57790;51.356;-2.906;2023-04-01T06:34:24;100588.19;;;10.85;100.00
70370;BME280;57790;51.356;-2.906;2023-04-01T06:38:05;100590.84;;;10.85;100.00
70370;BME280;57790;51.356;-2.906;2023-04-01T06:44:23;100593.34;;;10.86;100.00
70370;BME280;57790;51.356;-2.906;2023-04-01T06:54:20;100597.16;;;10.84;100.00
70370;BME280;57790;51.356;-2.906;2023-04-01T06:57:42;100600.47;;;10.86;100.00
70370;BME280;57790;51.356;-2.906;2023-04-01T07:00:46;100603.78;;;10.88;100.00
70370;BME280;57790;51.356;-2.906;2023-04-01T07:03:53;100611.91;;;10.86;100.00
70370;BME280;57790;51.356;-2.906;2023-04-01T07:09:58;100614.56;;;10.86;100.00
70370;BME280;57790;51.356;-2.906;2023-04-01T07:13:05;100617.22;;;10.86;100.00
70370;BME280;57790;51.356;-2.906;2023-04-01T07:19:39;100634.63;;;10.89;100.00
70370;BME280;57790;51.356;-2.906;2023-04-01T07:22:45;100630.97;;;10.90;100.00
70370;BME280;57790;51.356;-2.906;2023-04-01T07:25:52;100631.78;;;10.90;100.00
70370;BME280;57790;51.356;-2.906;2023-04-01T07:28:56;100634.44;;;10.90;100.00
70370;BME280;57790;51.356;-2.906;2023-04-01T07:52:15;100675.56;;;11.02;100.00
70370;BME280;57790;51.356;-2.906;2023-04-01T07:58:49;100682.19;;;11.07;100.00
70370;BME280;57790;51.356;-2.906;2023-04-01T08:02:14;100686.31;;;11.09;100.00
70370;BME280;57790;51.356;-2.906;2023-04-01T08:08:30;100681.50;;;11.13;100.00
70370;BME280;57790;51.356;-2.906;2023-04-01T08:11:48;100694.28;;;11.17;100.00
70370;BME280;57790;51.356;-2.906;2023-04-01T08:15:25;100690.47;;;11.20;100.00
70370;BME280;57790;51.356;-2.906;2023-04-01T08:22:02;100702.22;;;11.25;100.00
70370;BME280;57790;51.356;-2.906;2023-04-01T08:25:06;100696.59;;;11.28;100.00
70370;BME280;57790;51.356;-2.906;2023-04-01T08:28:27;100707.03;;;11.30;100.00
70370;BME280;57790;51.356;-2.906;2023-04-01T08:31:54;100715.16;;;11.37;100.00
70370;BME280;57790;51.356;-2.906;2023-04-01T08:35:11;100725.75;;;11.37;100.00
70370;BME280;57790;51.356;-2.906;2023-04-01T08:38:23;100729.25;;;11.37;100.00
70370;BME280;57790;51.356;-2.906;2023-04-01T08:48:48;100738.69;;;11.48;100.00
70370;BME280;57790;51.356;-2.906;2023-04-01T09:08:42;100763.38;;;11.56;100.00
70370;BME280;57790;51.356;-2.906;2023-04-01T09:15:28;100763.38;;;11.56;100.00
70370;BME280;57790;51.356;-2.906;2023-04-01T09:22:40;100765.56;;;11.53;100.00
70370;BME280;57790;51.356;-2.906;2023-04-01T09:42:23;100774.84;;;11.57;100.00
70370;BME280;57790;51.356;-2.906;2023-04-01T09:45:43;100782.97;;;11.55;100.00
70370;BME280;57790;51.356;-2.906;2023-04-01T10:39:37;100857.84;;;11.91;100.00
70370;BME280;57790;51.356;-2.906;2023-04-01T10:47:13;100868.59;;;11.98;100.00
70370;BME280;57790;51.356;-2.906;2023-04-01T10:50:31;100872.09;;;11.99;100.00
70370;BME280;57790;51.356;-2.906;2023-04-01T10:53:49;100870.78;;;12.03;100.00
70370;BME280;57790;51.356;-2.906;2023-04-01T10:57:00;100880.22;;;12.05;100.00
70370;BME280;57790;51.356;-2.906;2023-04-01T11:03:53;100889.69;;;12.08;100.00
70370;BME280;57790;51.356;-2.906;2023-04-01T11:37:38;100935.84;;;12.31;100.00
70370;BME280;57790;51.356;-2.906;2023-04-01T11:44:16;100948.63;;;12.36;100.00
70370;BME280;57790;51.356;-2.906;2023-04-01T11:47:51;100961.56;;;12.39;100.00
70370;BME280;57790;51.356;-2.906;2023-04-01T11:54:47;100980.00;;;12.40;100.00
70370;BME280;57790;51.356;-2.906;2023-04-01T12:01:26;100994.31;;;12.47;100.00
70370;BME280;57790;51.356;-2.906;2023-04-01T12:11:41;101007.75;;;12.54;100.00
70370;BME280;57790;51.356;-2.906;2023-04-01T12:15:02;101007.41;;;12.57;100.00
70370;BME280;57790;51.356;-2.906;2023-04-01T12:31:42;101038.00;;;12.61;100.00
70370;BME280;57790;51.356;-2.906;2023-04-01T12:34:52;101039.00;;;12.60;100.00
70370;BME280;57790;51.356;-2.906;2023-04-01T12:57:48;101088.84;;;12.58;100.00
70370;BME280;57790;51.356;-2.906;2023-04-01T13:07:40;101102.84;;;12.60;100.00
70370;BME280;57790;51.356;-2.906;2023-04-01T13:11:08;101113.47;;;12.60;100.00
70370;BME280;57790;51.356;-2.906;2023-04-01T13:21:13;101121.09;;;12.71;100.00
70370;BME280;57790;51.356;-2.906;2023-04-01T13:24:28;101130.75;;;12.72;100.00
70370;BME280;57790;51.356;-2.906;2023-04-01T13:27:39;101134.09;;;12.74;100.00
70370;BME280;57790;51.356;-2.906;2023-04-01T13:31:07;101145.06;;;12.79;100.00
70370;BME280;57790;51.356;-2.906;2023-04-01T13:34:34;101142.22;;;12.81;100.00
70370;BME280;57790;51.356;-2.906;2023-04-01T13:38:16;101149.88;;;12.76;100.00
70370;BME280;57790;51.356;-2.906;2023-04-01T13:55:09;101172.00;;;12.93;100.00
70370;BME280;57790;51.356;-2.906;2023-04-01T13:58:38;101177.31;;;12.93;100.00
70370;BME280;57790;51.356;-2.906;2023-04-01T14:01:52;101173.50;;;12.95;100.00
70370;BME280;57790;51.356;-2.906;2023-04-01T14:08:20;101183.63;;;13.00;100.00
70370;BME280;57790;51.356;-2.906;2023-04-01T14:18:39;101194.09;;;13.09;100.00
70370;BME280;57790;51.356;-2.906;2023-04-01T14:21:51;101195.94;;;13.17;100.00
70370;BME280;57790;51.356;-2.906;2023-04-01T14:32:06;101205.25;;;13.29;100.00
70370;BME280;57790;51.356;-2.906;2023-04-01T14:35:41;101209.44;;;13.32;100.00
70370;BME280;57790;51.356;-2.906;2023-04-01T14:42:31;101222.41;;;13.35;100.00
70370;BME280;57790;51.356;-2.906;2023-04-01T14:46:16;101221.09;;;13.31;100.00
70370;BME280;57790;51.356;-2.906;2023-04-01T14:49:37;101228.56;;;13.35;100.00
70370;BME280;57790;51.356;-2.906;2023-04-01T14:52:43;101233.53;;;13.38;100.00
70370;BME280;57790;51.356;-2.906;2023-04-01T14:55:52;101243.72;;;13.35;100.00
70370;BME280;57790;51.356;-2.906;2023-04-01T14:58:57;101235.22;;;13.39;100.00
70370;BME280;57790;51.356;-2.906;2023-04-01T15:49:42;101314.22;;;13.88;100.00
70370;BME280;57790;51.356;-2.906;2023-04-01T15:52:57;101305.06;;;13.90;100.00
70370;BME280;57790;51.356;-2.906;2023-04-01T15:56:15;101313.72;;;13.92;100.00
70370;BME280;57790;51.356;-2.906;2023-04-01T16:02:49;101314.34;;;14.03;100.00
70370;BME280;57790;51.356;-2.906;2023-04-01T16:05:55;101325.00;;;14.03;100.00
70370;BME280;57790;51.356;-2.906;2023-04-01T16:12:17;101325.34;;;14.08;100.00
70370;BME280;57790;51.356;-2.906;2023-04-01T16:15:29;101325.66;;;14.13;100.00
70370;BME280;57790;51.356;-2.906;2023-04-01T16:22:24;101335.47;;;14.20;100.00
70370;BME280;57790;51.356;-2.906;2023-04-01T16:25:38;101334.13;;;14.24;100.00
70370;BME280;57790;51.356;-2.906;2023-04-01T16:28:58;101343.31;;;14.22;100.00
70370;BME280;57790;51.356;-2.906;2023-04-01T16:32:32;101349.66;;;14.21;100.00
70370;BME280;57790;51.356;-2.906;2023-04-01T16:35:47;101364.47;;;14.23;100.00
70370;BME280;57790;51.356;-2.906;2023-04-01T16:38:55;101355.13;;;14.27;100.00
70370;BME280;57790;51.356;-2.906;2023-04-01T16:48:17;101386.47;;;14.34;100.00
70370;BME280;57790;51.356;-2.906;2023-04-01T16:51:21;101391.63;;;14.35;100.00
70370;BME280;57790;51.356;-2.906;2023-04-01T16:57:43;101402.25;;;14.43;100.00
70370;BME280;57790;51.356;-2.906;2023-04-01T17:00:50;101410.63;;;14.48;100.00
70370;BME280;57790;51.356;-2.906;2023-04-01T17:10:54;101423.25;;;14.54;100.00
70370;BME280;57790;51.356;-2.906;2023-04-01T17:14:14;101428.59;;;14.63;100.00
70370;BME280;57790;51.356;-2.906;2023-04-01T17:17:30;101438.91;;;14.66;100.00
70370;BME280;57790;51.356;-2.906;2023-04-01T17:27:21;101462.06;;;14.73;100.00
70370;BME280;57790;51.356;-2.906;2023-04-01T17:30:39;101471.41;;;14.77;100.00
70370;BME280;57790;51.356;-2.906;2023-04-01T17:44:02;101486.91;;;14.82;100.00
70370;BME280;57790;51.356;-2.906;2023-04-01T17:48:01;101500.91;;;14.84;100.00
70370;BME280;57790;51.356;-2.906;2023-04-01T17:54:28;101513.91;;;14.87;100.00
70370;BME280;57790;51.356;-2.906;2023-04-01T18:18:04;101555.63;;;14.88;100.00
70370;BME280;57790;51.356;-2.906;2023-04-01T18:21:27;101560.28;;;14.86;100.00
70370;BME280;57790;51.356;-2.906;2023-04-01T18:24:35;101579.00;;;14.86;100.00
70370;BME280;57790;51.356;-2.906;2023-04-01T18:31:15;101596.84;;;14.85;100.00
70370;BME280;57790;51.356;-2.906;2023-04-01T18:38:05;101615.88;;;14.82;100.00
70370;BME280;57790;51.356;-2.906;2023-04-01T18:41:14;101614.22;;;14.81;100.00
70370;BME280;57790;51.356;-2.906;2023-04-01T18:47:47;101636.91;;;14.77;100.00
70370;BME280;57790;51.356;-2.906;2023-04-01T18:50:59;101641.72;;;14.74;100.00
70370;BME280;57790;51.356;-2.906;2023-04-01T18:54:21;101652.75;;;14.71;100.00
70370;BME280;57790;51.356;-2.906;2023-04-01T18:57:24;101653.09;;;14.68;100.00
70370;BME280;57790;51.356;-2.906;2023-04-01T19:00:39;101669.94;;;14.68;100.00
70370;BME280;57790;51.356;-2.906;2023-04-01T19:04:00;101673.09;;;14.64;100.00
70370;BME280;57790;51.356;-2.906;2023-04-01T19:21:04;101708.63;;;14.48;100.00
70370;BME280;57790;51.356;-2.906;2023-04-01T19:27:48;101704.88;;;14.33;100.00
70370;BME280;57790;51.356;-2.906;2023-04-01T19:34:18;101709.84;;;14.19;100.00
70370;BME280;57790;51.356;-2.906;2023-04-01T19:37:51;101722.25;;;14.03;100.00
70370;BME280;57790;51.356;-2.906;2023-04-01T19:48:08;101748.41;;;13.91;100.00
70370;BME280;57790;51.356;-2.906;2023-04-01T19:51:12;101765.84;;;13.85;100.00
70370;BME280;57790;51.356;-2.906;2023-04-01T19:57:41;101782.84;;;13.84;100.00
70370;BME280;57790;51.356;-2.906;2023-04-01T20:00:52;101792.34;;;13.87;100.00
70370;BME280;57790;51.356;-2.906;2023-04-01T20:04:15;101792.47;;;13.77;100.00
70370;BME280;57790;51.356;-2.906;2023-04-01T20:14:48;101831.72;;;13.67;100.00
70370;BME280;57790;51.356;-2.906;2023-04-01T20:17:52;101838.50;;;13.61;100.00
70370;BME280;57790;51.356;-2.906;2023-04-01T20:20:56;101842.00;;;13.62;100.00
70370;BME280;57790;51.356;-2.906;2023-04-01T20:27:20;101848.09;;;13.54;100.00
70370;BME280;57790;51.356;-2.906;2023-04-01T20:34:15;101872.53;;;13.50;100.00
70370;BME280;57790;51.356;-2.906;2023-04-01T20:37:29;101872.63;;;13.40;100.00
70370;BME280;57790;51.356;-2.906;2023-04-01T20:40:40;101878.72;;;13.32;100.00
70370;BME280;57790;51.356;-2.906;2023-04-01T20:44:32;101883.41;;;13.38;100.00
70370;BME280;57790;51.356;-2.906;2023-04-01T20:47:22;101897.75;;;13.10;100.00
70370;BME280;57790;51.356;-2.906;2023-04-01T20:50:41;101898.63;;;13.01;100.00
70370;BME280;57790;51.356;-2.906;2023-04-01T20:54:05;101907.72;;;13.08;100.00
70370;BME280;57790;51.356;-2.906;2023-04-01T21:03:54;101923.84;;;13.06;100.00
70370;BME280;57790;51.356;-2.906;2023-04-01T21:10:33;101935.91;;;13.01;100.00
70370;BME280;57790;51.356;-2.906;2023-04-01T21:26:54;101950.69;;;12.58;100.00
70370;BME280;57790;51.356;-2.906;2023-04-01T21:30:14;101961.91;;;12.52;100.00
70370;BME280;57790;51.356;-2.906;2023-04-01T21:40:48;101985.13;;;12.60;100.00
70370;BME280;57790;51.356;-2.906;2023-04-01T21:50:35;101999.38;;;12.68;100.00
70370;BME280;57790;51.356;-2.906;2023-04-01T21:54:01;102008.03;;;12.70;100.00
70370;BME280;57790;51.356;-2.906;2023-04-01T22:00:32;102015.66;;;12.56;100.00
70370;BME280;57790;51.356;-2.906;2023-04-01T22:03:39;102010.78;;;12.51;100.00
70370;BME280;57790;51.356;-2.906;2023-04-01T22:06:48;102012.31;;;12.54;100.00
70370;BME280;57790;51.356;-2.906;2023-04-01T22:13:50;102033.72;;;12.52;100.00
70370;BME280;57790;51.356;-2.906;2023-04-01T22:17:05;102038.91;;;12.44;100.00
70370;BME280;57790;51.356;-2.906;2023-04-01T22:20:21;102034.72;;;12.51;100.00
70370;BME280;57790;51.356;-2.906;2023-04-01T22:23:45;102040.03;;;12.41;100.00
70370;BME280;57790;51.356;-2.906;2023-04-01T22:26:49;102045.09;;;12.44;100.00
70370;BME280;57790;51.356;-2.906;2023-04-01T22:42:53;102074.91;;;12.29;100.00
70370;BME280;57790;51.356;-2.906;2023-04-01T22:49:12;102084.13;;;12.25;100.00
70370;BME280;57790;51.356;-2.906;2023-04-01T22:52:33;102083.72;;;12.29;100.00
70370;BME280;57790;51.356;-2.906;2023-04-01T22:55:38;102095.47;;;12.27;100.00
70370;BME280;57790;51.356;-2.906;2023-04-01T22:58:50;102098.00;;;12.18;100.00
70370;BME280;57790;51.356;-2.906;2023-04-01T23:01:57;102111.16;;;12.30;100.00
70370;BME280;57790;51.356;-2.906;2023-04-01T23:05:02;102116.75;;;12.07;100.00
70370;BME280;57790;51.356;-2.906;2023-04-01T23:12:09;102132.25;;;12.12;100.00
70370;BME280;57790;51.356;-2.906;2023-04-01T23:15:14;102132.56;;;12.18;100.00
70370;BME280;57790;51.356;-2.906;2023-04-01T23:18:23;102139.69;;;12.08;100.00
70370;BME280;57790;51.356;-2.906;2023-04-01T23:34:35;102163.84;;;11.96;100.00
70370;BME280;57790;51.356;-2.906;2023-04-01T23:37:36;102164.41;;;11.99;100.00
70370;BME280;57790;51.356;-2.906;2023-04-01T23:40:37;102169.34;;;12.04;100.00
70370;BME280;57790;51.356;-2.906;2023-04-01T23:43:40;102176.03;;;11.98;100.00
70370;BME280;57790;51.356;-2.906;2023-04-01T23:46:44;102168.75;;;12.00;100.00
70370;BME280;57790;51.356;-2.906;2023-04-01T23:49:53;102171.00;;;11.95;100.00
70370;BME280;57790;51.356;-2.906;2023-04-01T23:53:02;102180.66;;;11.96;100.00
70370;BME280;57790;51.356;-2.906;2023-04-01T23:56:03;102176.28;;;11.85;100.00
70370;BME280;57790;51.356;-2.906;2023-04-01T23:59:03;102187.22;;;11.92;100.00
